Thursday, October 02, 2014
10:34 UTC
  |  Log In   |  Register Free
Airport Search:

Enid Woodring Regional Airport
(KWDG)

FAA data valid effective September 18, 2014 - November 13, 2014 (unless otherwise noted).

 
 
 
 
 
 
 
 
 
 
 
 
 
 

Current Aviation Weather for Enid Woodring Regional Airport (KWDG)

The most recent METAR observation for KWDG was updated at: 1022
METAR Summary (Translated METAR)
KWDG
020955Z AUTO 16007KT 10SM CLR 21/19 A2967 RMK AO2 LTG DSNT E AND SE
KEND
020958Z AUTO 14009KT 10SM CLR 23/22 A2967 RMK AO2 SLP032 T02270223 $
(6.6 nm SW from KWDG)
KBKN
020955Z AUTO 15010KT 10SM CLR 23/20 A2967 RMK AO2 LTG DSNT E AND SE
(30.5 nm NE from KWDG)
TAF Summary (Translated TAF)
KEND
(6.6 nm SW from KWDG)
0123/0224 20009KT 9999 FEW050 FEW110 QNH2964INS BECMG 0205/0206 18010G18KT 8000 -RA SCT020 BKN050 QNH2972INS TEMPO 0206/0211 18012G30KT 3200 -TSRA BKN020CB OVC050 BECMG 0214/0215 22022G28KT 9999 NSW SCT030 BKN080 QNH2965INS BECMG 0217/0218 32010G20KT 9999 FEW040 QNH2978INS TX33/0123Z TN17/0212Z AMD 012346 LAST NO AMDS AFT 0123 NEXT 0210
  Airport Weather Conditions for KWDG

 Current Weather at WDG
72° F
Fair
South winds at 6.9 mph
WDG NOAA Radar

Pressure: 29.66 in
Humidity: 83%
Wind: South at 6.9 MPH (6 KT)
Dew Point: 66.2°F
Visibility: 10.00 mi


Airport Weather Forecast for KWDG

Translated METAR and TAF for KWDG
Translated METAR for KWDG (1028 UTC 02 October 2014)
found at http://aviationweather.gov/adds/metars/
 
METAR text: KWDG 021015Z AUTO 15008KT 10SM CLR 22/19 A2967 RMK AO2 LTG DSNT E AND SE
Conditions at: KWDG (ENID/WOODRING , OK, US) observed 1015 UTC 02 October 2014
Temperature: 22.0°C (72°F)
Dewpoint: 19.0°C (66°F) [RH = 83%]
Pressure (altimeter): 29.67 inches Hg (1004.8 mb)
Winds: from the SSE (150 degrees) at 9 MPH (8 knots; 4.2 m/s)
Visibility: 10 or more miles (16+ km)
Ceiling: at least 12,000 feet AGL
Clouds: sky clear below 12,000 feet AGL
Weather: automated observation with no human augmentation;
there may or may not be significant weather present at this time
Translated TAF for KWDG

There is no translated TAF available for this airport

Find All Airport Services Find A Hotel Find A Rental Car Find A Golf Course Find A Restaurant $100 Hamburger



FBO's on the Field
FBO Company Facility Photos Services Transportation Aviation Fuel Prices: Prices include tax
Catering Weather Repair Courtesy Rental Type 100LL JetA JetA+ MOGAS 8087
 
Enid Woodring Regional Airport

This FBO has not yet been rated
FS:Phillips66
Last Updated: Sep-17
Login to update fuel prices
SS:
Contact Enid Woodring Regional AirportMore FBO Information
 
Add another FBO Facility Photos Catering Weather Repair Courtesy Rental Type 100LL JetA JetA+ MOGAS 8087
Services Transportation Aviation Fuel Prices: Prices include tax


model-print
model-print
model-print
model-print